Plainville, Illinois
Current Conditions -  °F | °C
As of 4:54 PM on Saturday 20 Dec 2014 (Local Time) from KUIN Reporting Station
Haze Haze  
Wind Chill: 31°   Ceiling: 2400
Heat Index: 36°   Visibility: 5mi
Dew Point: 33°   Wind: 6mph
Humidity: 89%   Direction: 150°SSE
Pressure: 30.2"   Gusts: NA
Location:  39.79°N, 91.19°W
Report Text: KUIN 202254Z AUTO 15005KT 5SM BR BKN024 OVC029 02/01 A3020 RMK AO2 SLP233 T00220006
Loading
Personal Weather Stations






























Interactive Weather Map New forecast layout! Learn more

10-Day Weather Forecast

Advertisements
Track Severe Weather on mobile